Time;durP1;ratioP1;P1;durP2;ratioP2;P2;SDS_P1;SDS_P2;PMS_P1;PMS_P2;Temp;Humidity;BMP_temperature;BMP_pressure;BME280_temperature;BME280_humidity;BME280_pressure;Samples;Min_cycle;Max_cycle;Signal;HPM_P1;HPM_P2
2022/03/03 00:04:10;;;;;;;11.95;7.53;;;;;;;;;;10620315;27;20023;-52
2022/03/03 00:09:11;;;;;;;12.10;8.18;;;;;;;;;;10620104;27;20470;-53
2022/03/03 00:14:11;;;;;;;12.80;7.53;;;;;;;;;;10616097;27;20058;-53
2022/03/03 00:19:11;;;;;;;9.97;6.70;;;;;;;;;;10619147;27;20455;-56
2022/03/03 00:24:12;;;;;;;11.73;7.83;;;;;;;;;;10615945;27;20432;-54
2022/03/03 00:29:12;;;;;;;12.13;8.03;;;;;;;;;;10618735;27;20468;-56
2022/03/03 00:34:13;;;;;;;11.32;7.53;;;;;;;;;;10619263;27;20447;-54
2022/03/03 00:39:13;;;;;;;14.93;7.80;;;;;;;;;;10618364;27;20043;-55
2022/03/03 00:44:14;;;;;;;11.45;7.40;;;;;;;;;;10618334;27;20030;-56
2022/03/03 00:49:14;;;;;;;14.83;7.87;;;;;;;;;;10618994;27;20102;-61
2022/03/03 00:54:15;;;;;;;10.50;7.00;;;;;;;;;;10617645;27;20441;-61
2022/03/03 00:59:15;;;;;;;12.07;7.80;;;;;;;;;;10617202;27;20034;-60
2022/03/03 01:04:15;;;;;;;12.83;7.37;;;;;;;;;;10617958;27;20440;-62
2022/03/03 01:09:16;;;;;;;11.40;6.72;;;;;;;;;;10618149;27;20114;-61
2022/03/03 01:14:23;;;;;;;10.82;7.82;;;;;;;;;;10618077;27;20035;-62
2022/03/03 01:19:23;;;;;;;13.25;7.63;;;;;;;;;;10617954;27;20114;-59
2022/03/03 01:24:23;;;;;;;12.00;7.23;;;;;;;;;;10614229;28;20102;-59
2022/03/03 01:29:24;;;;;;;12.20;7.57;;;;;;;;;;10614096;27;20484;-57
2022/03/03 01:34:24;;;;;;;10.00;7.32;;;;;;;;;;10617924;28;20053;-53
2022/03/03 01:39:25;;;;;;;11.70;7.85;;;;;;;;;;10616981;27;20070;-56
2022/03/03 01:44:25;;;;;;;13.15;7.82;;;;;;;;;;10617096;28;20029;-55
2022/03/03 01:49:26;;;;;;;12.30;7.65;;;;;;;;;;10617179;27;20056;-54
2022/03/03 01:54:26;;;;;;;13.50;8.23;;;;;;;;;;10617511;28;20019;-51
2022/03/03 01:59:27;;;;;;;15.00;8.20;;;;;;;;;;10616745;27;20027;-55
2022/03/03 02:04:28;;;;;;;14.25;7.97;;;;;;;;;;10617748;27;20027;-54
2022/03/03 02:09:28;;;;;;;11.38;7.90;;;;;;;;;;10625194;27;20023;-55
2022/03/03 02:14:29;;;;;;;12.90;7.97;;;;;;;;;;10625083;27;20167;-55
2022/03/03 02:19:29;;;;;;;12.27;8.10;;;;;;;;;;10624175;27;20982;-54
2022/03/03 02:24:29;;;;;;;15.20;8.07;;;;;;;;;;10624653;27;20374;-54
2022/03/03 02:29:30;;;;;;;12.07;8.00;;;;;;;;;;10617367;27;20530;-56
2022/03/03 02:34:31;;;;;;;12.25;7.70;;;;;;;;;;10624218;27;20042;-55
2022/03/03 02:39:32;;;;;;;12.88;8.32;;;;;;;;;;10623405;27;20054;-53
2022/03/03 02:44:32;;;;;;;12.27;7.78;;;;;;;;;;10623720;27;20466;-55
2022/03/03 02:49:33;;;;;;;11.80;7.70;;;;;;;;;;10623083;27;20076;-53
2022/03/03 02:54:33;;;;;;;13.70;7.30;;;;;;;;;;10622947;27;20471;-55
2022/03/03 02:59:34;;;;;;;11.47;7.60;;;;;;;;;;10622800;27;20023;-55
2022/03/03 03:04:34;;;;;;;10.63;7.63;;;;;;;;;;10622528;27;20966;-55
2022/03/03 03:09:34;;;;;;;10.90;7.73;;;;;;;;;;10622905;27;20058;-55
2022/03/03 03:14:35;;;;;;;12.70;7.90;;;;;;;;;;10621973;27;20048;-56
2022/03/03 03:19:35;;;;;;;12.20;8.17;;;;;;;;;;10620725;27;20825;-57
2022/03/03 03:24:35;;;;;;;11.13;8.13;;;;;;;;;;10621699;27;20432;-59
2022/03/03 03:29:36;;;;;;;13.20;8.07;;;;;;;;;;10619023;27;20079;-57
2022/03/03 03:34:36;;;;;;;12.90;7.77;;;;;;;;;;10621858;27;20451;-58
2022/03/03 03:39:37;;;;;;;12.67;7.50;;;;;;;;;;10617414;27;20822;-56
2022/03/03 03:44:38;;;;;;;10.13;7.03;;;;;;;;;;10620979;27;20472;-57
2022/03/03 03:49:38;;;;;;;11.73;7.55;;;;;;;;;;10621245;27;20027;-56
2022/03/03 03:54:38;;;;;;;11.57;7.90;;;;;;;;;;10620613;27;20512;-56
2022/03/03 03:59:39;;;;;;;11.17;7.70;;;;;;;;;;10619974;27;20037;-57
2022/03/03 04:04:39;;;;;;;10.13;7.38;;;;;;;;;;10621206;27;20450;-54
2022/03/03 04:09:40;;;;;;;10.73;7.17;;;;;;;;;;10619970;27;20023;-51
2022/03/03 04:14:40;;;;;;;12.37;8.27;;;;;;;;;;10619859;27;20560;-52
2022/03/03 04:19:40;;;;;;;10.90;7.47;;;;;;;;;;10619421;27;20034;-54
2022/03/03 04:24:41;;;;;;;11.63;7.43;;;;;;;;;;10620042;27;20507;-53
2022/03/03 04:29:42;;;;;;;11.00;8.20;;;;;;;;;;10618912;27;20435;-51
2022/03/03 04:34:42;;;;;;;11.05;7.50;;;;;;;;;;10619476;27;20024;-52
2022/03/03 04:39:42;;;;;;;11.38;7.53;;;;;;;;;;10615458;27;20436;-51
2022/03/03 04:44:43;;;;;;;9.17;6.77;;;;;;;;;;10615173;27;20103;-58
2022/03/03 04:49:43;;;;;;;11.03;7.93;;;;;;;;;;10618822;27;20049;-53
2022/03/03 04:54:44;;;;;;;9.98;7.50;;;;;;;;;;10618382;27;20103;-52
2022/03/03 04:59:45;;;;;;;9.13;7.22;;;;;;;;;;10618222;27;20023;-51
2022/03/03 05:04:45;;;;;;;10.20;7.40;;;;;;;;;;10618610;27;20458;-54
2022/03/03 05:09:46;;;;;;;9.43;7.70;;;;;;;;;;10617885;27;20118;-53
2022/03/03 05:14:46;;;;;;;11.37;7.53;;;;;;;;;;10618406;27;20024;-53
2022/03/03 05:19:46;;;;;;;10.50;7.73;;;;;;;;;;10617695;27;20459;-55
2022/03/03 05:24:50;;;;;;;11.97;7.17;;;;;;;;;;10618232;28;20026;-55
2022/03/03 05:29:50;;;;;;;9.98;7.40;;;;;;;;;;10617425;27;20492;-55
2022/03/03 05:34:51;;;;;;;11.82;6.82;;;;;;;;;;10617264;28;20015;-58
2022/03/03 05:39:52;;;;;;;10.73;7.65;;;;;;;;;;10618754;27;20100;-52
2022/03/03 05:44:53;;;;;;;11.80;7.20;;;;;;;;;;10622723;27;20034;-56
2022/03/03 05:49:55;;;;;;;12.55;7.32;;;;;;;;;;10625619;27;20027;-56
2022/03/03 05:54:55;;;;;;;9.85;7.40;;;;;;;;;;10622304;27;20023;-55
2022/03/03 05:59:58;;;;;;;11.07;7.10;;;;;;;;;;10625116;27;20481;-55
2022/03/03 06:04:58;;;;;;;10.52;7.03;;;;;;;;;;10625116;27;20019;-56
2022/03/03 06:10:02;;;;;;;9.40;7.00;;;;;;;;;;10624695;27;20466;-55
2022/03/03 06:15:04;;;;;;;10.43;7.10;;;;;;;;;;10624570;27;21006;-57
2022/03/03 06:20:05;;;;;;;9.98;6.55;;;;;;;;;;10624835;27;20038;-55
2022/03/03 06:25:06;;;;;;;8.40;6.70;;;;;;;;;;10624461;27;20030;-54
2022/03/03 06:30:07;;;;;;;9.95;6.97;;;;;;;;;;10624581;27;20034;-51
2022/03/03 06:35:08;;;;;;;9.63;6.78;;;;;;;;;;10623910;27;20056;-56
2022/03/03 06:40:09;;;;;;;9.45;6.60;;;;;;;;;;10623164;27;20054;-55
2022/03/03 06:45:09;;;;;;;7.53;6.15;;;;;;;;;;10623386;27;20039;-56
2022/03/03 06:50:10;;;;;;;8.43;6.32;;;;;;;;;;10622240;27;20110;-55
2022/03/03 06:55:12;;;;;;;14.70;6.77;;;;;;;;;;10618870;27;20023;-56
2022/03/03 07:00:14;;;;;;;9.48;6.32;;;;;;;;;;10600898;27;20826;-62
2022/03/03 07:05:15;;;;;;;8.52;6.43;;;;;;;;;;10621971;27;20016;-57
2022/03/03 07:10:35;;;;;;;9.43;5.90;;;;;;;;;;10622222;27;20046;-61
2022/03/03 07:15:52;;;;;;;10.55;6.30;;;;;;;;;;10622377;27;20038;-60
2022/03/03 07:21:03;;;;;;;17.52;7.85;;;;;;;;;;10622171;27;20038;-62
2022/03/03 07:26:08;;;;;;;26.80;7.10;;;;;;;;;;10621948;27;20031;-62
2022/03/03 07:31:08;;;;;;;24.60;7.28;;;;;;;;;;10621186;27;20493;-63
2022/03/03 07:36:12;;;;;;;23.75;7.55;;;;;;;;;;10602571;27;20026;-62
2022/03/03 07:41:12;;;;;;;22.52;7.40;;;;;;;;;;10620884;27;20494;-62
2022/03/03 07:46:13;;;;;;;19.58;8.27;;;;;;;;;;10621002;27;20027;-61
2022/03/03 07:51:14;;;;;;;21.13;7.93;;;;;;;;;;10602167;27;20027;-62
2022/03/03 07:56:40;;;;;;;19.40;7.20;;;;;;;;;;10620940;27;20023;-60
2022/03/03 08:01:41;;;;;;;19.73;6.68;;;;;;;;;;10598278;27;20035;-60
2022/03/03 08:06:43;;;;;;;24.02;7.45;;;;;;;;;;10597713;27;20027;-63
2022/03/03 08:11:46;;;;;;;22.95;7.07;;;;;;;;;;10619457;27;20031;-60
2022/03/03 08:16:47;;;;;;;13.85;7.28;;;;;;;;;;10601545;27;20098;-61
2022/03/03 08:21:48;;;;;;;19.52;8.30;;;;;;;;;;10619828;27;20114;-61
2022/03/03 08:26:48;;;;;;;19.40;7.40;;;;;;;;;;10619301;27;20035;-62
2022/03/03 08:31:53;;;;;;;15.60;7.35;;;;;;;;;;10619924;27;20031;-59
2022/03/03 08:37:00;;;;;;;13.48;7.03;;;;;;;;;;10619084;27;20039;-60
2022/03/03 08:42:01;;;;;;;11.57;6.82;;;;;;;;;;10618964;27;20031;-60
2022/03/03 08:47:05;;;;;;;16.13;7.80;;;;;;;;;;10618000;27;20023;-60
2022/03/03 08:52:07;;;;;;;16.85;6.88;;;;;;;;;;10618606;27;20043;-59
2022/03/03 08:57:08;;;;;;;15.43;7.32;;;;;;;;;;10617868;27;20027;-60
2022/03/03 09:02:11;;;;;;;17.33;7.90;;;;;;;;;;10617794;27;20034;-60
2022/03/03 09:07:13;;;;;;;13.13;7.10;;;;;;;;;;10614521;27;20027;-59
2022/03/03 09:12:13;;;;;;;13.77;7.10;;;;;;;;;;10614362;27;20389;-60
2022/03/03 09:17:14;;;;;;;16.00;7.18;;;;;;;;;;10616752;27;20023;-60
2022/03/03 09:22:15;;;;;;;14.67;7.60;;;;;;;;;;10618024;28;20030;-60
2022/03/03 09:27:15;;;;;;;13.57;7.13;;;;;;;;;;10617419;27;20508;-59
2022/03/03 09:32:16;;;;;;;11.50;6.63;;;;;;;;;;10617151;28;20114;-62
2022/03/03 09:37:16;;;;;;;21.13;8.63;;;;;;;;;;10616942;27;20455;-60
2022/03/03 09:42:17;;;;;;;20.27;9.43;;;;;;;;;;10616875;28;20856;-60
2022/03/03 09:47:17;;;;;;;23.33;13.85;;;;;;;;;;10617475;27;20448;-60
2022/03/03 09:52:19;;;;;;;36.38;21.23;;;;;;;;;;10617488;28;20359;-59
2022/03/03 09:57:20;;;;;;;52.30;29.70;;;;;;;;;;10617046;27;20042;-61
2022/03/03 10:02:21;;;;;;;51.08;31.17;;;;;;;;;;10616631;28;20023;-60
2022/03/03 10:07:23;;;;;;;66.87;34.47;;;;;;;;;;10616568;27;20016;-59
2022/03/03 10:12:26;;;;;;;64.03;36.83;;;;;;;;;;10614540;28;20507;-60
2022/03/03 10:17:37;;;;;;;81.15;45.85;;;;;;;;;;10616792;27;20055;-60
2022/03/03 10:22:39;;;;;;;121.03;71.75;;;;;;;;;;10613169;28;20027;-60
2022/03/03 10:27:40;;;;;;;78.90;47.55;;;;;;;;;;10620533;27;20027;-59
2022/03/03 10:32:41;;;;;;;107.85;61.35;;;;;;;;;;10624052;27;20107;-62
2022/03/03 10:37:46;;;;;;;100.45;56.72;;;;;;;;;;10623564;27;20132;-61
2022/03/03 10:42:48;;;;;;;105.50;57.05;;;;;;;;;;10623716;27;20034;-62
2022/03/03 10:48:01;;;;;;;106.47;60.05;;;;;;;;;;10623002;27;20027;-62
2022/03/03 10:53:09;;;;;;;99.05;58.08;;;;;;;;;;10622874;27;20023;-60
2022/03/03 10:58:09;;;;;;;89.88;53.97;;;;;;;;;;10622800;27;20030;-60
2022/03/03 11:03:10;;;;;;;98.95;57.60;;;;;;;;;;10621723;27;20042;-59
2022/03/03 11:08:11;;;;;;;97.25;53.65;;;;;;;;;;10604544;27;20027;-60
2022/03/03 11:13:11;;;;;;;99.93;58.53;;;;;;;;;;10603946;27;20023;-60
2022/03/03 11:18:18;;;;;;;92.90;56.05;;;;;;;;;;10621874;27;20495;-61
2022/03/03 11:23:19;;;;;;;97.93;55.95;;;;;;;;;;10601799;27;20222;-60
2022/03/03 11:28:33;;;;;;;94.50;54.20;;;;;;;;;;10622069;27;20512;-62
2022/03/03 11:33:38;;;;;;;98.15;57.65;;;;;;;;;;10618194;27;20563;-60
2022/03/03 11:38:56;;;;;;;97.95;54.13;;;;;;;;;;10620665;27;20051;-61
2022/03/03 11:44:01;;;;;;;96.95;57.05;;;;;;;;;;10602475;27;20038;-61
2022/03/03 11:49:12;;;;;;;147.32;89.35;;;;;;;;;;10620819;27;20042;-61
2022/03/03 11:54:12;;;;;;;139.02;87.75;;;;;;;;;;10620780;27;20042;-60
2022/03/03 11:59:13;;;;;;;155.05;94.05;;;;;;;;;;10620300;27;20474;-59
2022/03/03 12:04:14;;;;;;;152.13;97.50;;;;;;;;;;10620101;27;20019;-59
2022/03/03 12:09:20;;;;;;;178.70;111.55;;;;;;;;;;10619835;27;20038;-59
2022/03/03 12:14:32;;;;;;;203.70;120.03;;;;;;;;;;10620199;27;20023;-60
2022/03/03 12:19:35;;;;;;;241.10;139.07;;;;;;;;;;10619719;27;20526;-60
2022/03/03 12:24:37;;;;;;;217.43;133.35;;;;;;;;;;10619457;27;20048;-62
2022/03/03 12:29:41;;;;;;;243.63;142.10;;;;;;;;;;10616164;27;20080;-59
2022/03/03 12:34:45;;;;;;;242.77;144.38;;;;;;;;;;10615598;27;20035;-60
2022/03/03 12:39:49;;;;;;;277.13;166.18;;;;;;;;;;10618620;27;20097;-59
2022/03/03 12:44:51;;;;;;;277.85;172.85;;;;;;;;;;10618436;27;20023;-60
2022/03/03 12:49:51;;;;;;;290.83;179.43;;;;;;;;;;10617831;27;20047;-59
2022/03/03 12:54:52;;;;;;;291.07;184.93;;;;;;;;;;10618154;27;20050;-60
2022/03/03 12:59:53;;;;;;;296.73;187.30;;;;;;;;;;10617959;27;20444;-60
2022/03/03 13:04:53;;;;;;;321.63;199.40;;;;;;;;;;10617998;27;20019;-59
2022/03/03 13:09:55;;;;;;;327.02;208.25;;;;;;;;;;10618684;27;20435;-60
2022/03/03 13:14:57;;;;;;;332.60;214.40;;;;;;;;;;10617714;27;20027;-59
2022/03/03 13:20:03;;;;;;;338.90;218.90;;;;;;;;;;10617541;27;20484;-59
2022/03/03 13:25:25;;;;;;;333.95;217.40;;;;;;;;;;10618356;28;20047;-59
2022/03/03 13:30:26;;;;;;;297.35;190.90;;;;;;;;;;10617159;27;20033;-60
2022/03/03 13:35:40;;;;;;;303.38;190.50;;;;;;;;;;10612188;28;20337;-60
2022/03/03 13:40:41;;;;;;;278.40;178.55;;;;;;;;;;10613540;28;20502;-60
2022/03/03 13:45:41;;;;;;;267.70;168.73;;;;;;;;;;10616780;27;20019;-62
2022/03/03 13:50:43;;;;;;;248.55;152.35;;;;;;;;;;10616524;28;20469;-60
2022/03/03 13:55:46;;;;;;;250.00;156.45;;;;;;;;;;10616175;27;20023;-60
2022/03/03 14:00:47;;;;;;;255.90;149.68;;;;;;;;;;10618765;27;20193;-61
2022/03/03 14:06:02;;;;;;;223.52;138.52;;;;;;;;;;10624511;27;20190;-59
2022/03/03 14:11:23;;;;;;;209.43;135.90;;;;;;;;;;10624870;27;20035;-60
2022/03/03 14:16:35;;;;;;;201.85;129.18;;;;;;;;;;10624594;27;20299;-60
2022/03/03 14:21:36;;;;;;;194.82;123.03;;;;;;;;;;10623903;27;20395;-59
2022/03/03 14:26:37;;;;;;;189.30;118.40;;;;;;;;;;10624614;27;20023;-59
2022/03/03 14:31:37;;;;;;;182.88;109.10;;;;;;;;;;10623882;27;20031;-60
2022/03/03 14:36:38;;;;;;;173.70;106.83;;;;;;;;;;10623524;27;20047;-61
2022/03/03 14:41:40;;;;;;;164.40;104.13;;;;;;;;;;10620412;27;20811;-61
2022/03/03 14:46:40;;;;;;;159.52;92.90;;;;;;;;;;10622811;27;20388;-59
2022/03/03 14:51:41;;;;;;;143.50;89.18;;;;;;;;;;10619842;27;20030;-61
2022/03/03 14:56:42;;;;;;;147.10;85.72;;;;;;;;;;10623047;27;20027;-59
2022/03/03 15:01:42;;;;;;;134.18;82.60;;;;;;;;;;10623278;27;20027;-60
2022/03/03 15:06:43;;;;;;;129.35;78.55;;;;;;;;;;10622182;27;20105;-61
2022/03/03 15:11:43;;;;;;;123.72;78.32;;;;;;;;;;10621030;27;20462;-61
2022/03/03 15:16:46;;;;;;;117.43;73.53;;;;;;;;;;10621908;27;20023;-62
2022/03/03 15:21:46;;;;;;;116.07;72.10;;;;;;;;;;10604415;27;20500;-60
2022/03/03 15:26:47;;;;;;;116.70;71.45;;;;;;;;;;10622388;27;20371;-60
2022/03/03 15:31:47;;;;;;;114.77;72.33;;;;;;;;;;10622117;27;20042;-60
2022/03/03 15:36:48;;;;;;;108.57;69.40;;;;;;;;;;10621021;27;20542;-60
2022/03/03 15:41:51;;;;;;;108.22;68.63;;;;;;;;;;10621298;27;20096;-61
2022/03/03 15:46:52;;;;;;;103.97;67.72;;;;;;;;;;10621503;27;20035;-62
2022/03/03 15:51:53;;;;;;;101.50;66.28;;;;;;;;;;10617116;27;20023;-62
2022/03/03 15:56:54;;;;;;;105.95;66.28;;;;;;;;;;10617053;27;20079;-60
2022/03/03 16:01:55;;;;;;;104.03;66.70;;;;;;;;;;10620056;27;20084;-61
2022/03/03 16:06:55;;;;;;;102.68;66.70;;;;;;;;;;10601662;27;20076;-62
2022/03/03 16:11:56;;;;;;;94.28;62.20;;;;;;;;;;10619747;27;20023;-61
2022/03/03 16:16:58;;;;;;;101.13;62.80;;;;;;;;;;10619712;27;20023;-63
2022/03/03 16:21:58;;;;;;;100.22;62.60;;;;;;;;;;10601350;27;20359;-61
2022/03/03 16:26:59;;;;;;;96.43;60.10;;;;;;;;;;10619153;27;20023;-61
2022/03/03 16:32:06;;;;;;;90.78;56.63;;;;;;;;;;10619166;27;20447;-60
2022/03/03 16:37:11;;;;;;;90.10;58.15;;;;;;;;;;10601625;27;20053;-61
2022/03/03 16:42:14;;;;;;;87.38;54.95;;;;;;;;;;10618850;27;20022;-61
2022/03/03 16:47:16;;;;;;;83.07;54.88;;;;;;;;;;10618852;27;20016;-60
2022/03/03 16:52:19;;;;;;;88.45;53.97;;;;;;;;;;10618342;27;20027;-62
2022/03/03 16:57:20;;;;;;;81.38;52.20;;;;;;;;;;10615382;27;20023;-60
2022/03/03 17:02:21;;;;;;;78.15;50.63;;;;;;;;;;10614905;27;20023;-61
2022/03/03 17:07:21;;;;;;;76.30;47.85;;;;;;;;;;10617865;27;20031;-61
2022/03/03 17:12:21;;;;;;;71.20;44.88;;;;;;;;;;10617605;27;20019;-61
2022/03/03 17:17:22;;;;;;;66.57;44.10;;;;;;;;;;10617769;27;20027;-61
2022/03/03 17:22:22;;;;;;;61.13;40.03;;;;;;;;;;10617786;27;20454;-62
2022/03/03 17:27:23;;;;;;;61.40;40.13;;;;;;;;;;10617695;27;20035;-59
2022/03/03 17:32:24;;;;;;;62.38;39.70;;;;;;;;;;10617979;28;20440;-59
2022/03/03 17:37:25;;;;;;;58.27;37.53;;;;;;;;;;10621555;27;20066;-60
2022/03/03 17:42:27;;;;;;;57.72;35.78;;;;;;;;;;10625716;27;20462;-60
2022/03/03 17:47:27;;;;;;;52.67;35.55;;;;;;;;;;10626172;27;20071;-59
2022/03/03 17:52:28;;;;;;;48.50;33.70;;;;;;;;;;10625581;27;20035;-56
2022/03/03 17:57:30;;;;;;;50.07;33.97;;;;;;;;;;10625364;27;20448;-57
2022/03/03 18:02:31;;;;;;;50.35;33.10;;;;;;;;;;10622166;27;20034;-57
2022/03/03 18:07:31;;;;;;;49.07;32.83;;;;;;;;;;10622144;27;20067;-60
2022/03/03 18:12:32;;;;;;;51.10;32.40;;;;;;;;;;10624606;27;20112;-57
2022/03/03 18:17:32;;;;;;;45.95;31.13;;;;;;;;;;10624974;27;20143;-56
2022/03/03 18:22:34;;;;;;;44.53;31.00;;;;;;;;;;10624037;27;20536;-57
2022/03/03 18:27:34;;;;;;;48.58;31.42;;;;;;;;;;10623809;27;20019;-54
2022/03/03 18:32:34;;;;;;;45.77;31.63;;;;;;;;;;10624606;27;20027;-56
2022/03/03 18:37:35;;;;;;;48.17;31.33;;;;;;;;;;10623702;27;20493;-53
2022/03/03 18:42:35;;;;;;;48.42;31.13;;;;;;;;;;10624466;27;20027;-56
2022/03/03 18:47:36;;;;;;;43.17;29.97;;;;;;;;;;10623216;27;20016;-58
2022/03/03 18:52:36;;;;;;;45.05;29.48;;;;;;;;;;10604780;27;20494;-57
2022/03/03 18:57:38;;;;;;;43.07;29.23;;;;;;;;;;10623178;27;20023;-61
2022/03/03 19:02:38;;;;;;;41.03;27.10;;;;;;;;;;10623377;27;20444;-53
2022/03/03 19:07:39;;;;;;;37.73;27.53;;;;;;;;;;10619472;27;20027;-52
2022/03/03 19:12:40;;;;;;;40.25;27.25;;;;;;;;;;10620023;27;20427;-58
2022/03/03 19:17:41;;;;;;;41.58;25.42;;;;;;;;;;10622794;27;20122;-54
2022/03/03 19:22:42;;;;;;;41.75;26.02;;;;;;;;;;10622271;27;20481;-56
2022/03/03 19:27:42;;;;;;;35.95;25.23;;;;;;;;;;10621414;27;20031;-51
2022/03/03 19:38:01;;;;;;;;;;;;;;;;;;10621503;27;20463;-60
2022/03/03 19:43:03;;;;;;;39.43;24.60;;;;;;;;;;10621314;27;19911;-54
2022/03/03 19:48:03;;;;;;;33.05;23.95;;;;;;;;;;10619762;27;20837;-57
2022/03/03 19:53:04;;;;;;;37.30;23.63;;;;;;;;;;10621029;27;20072;-58
2022/03/03 19:58:04;;;;;;;36.83;23.70;;;;;;;;;;10619875;27;20070;-59
2022/03/03 20:03:04;;;;;;;36.80;21.37;;;;;;;;;;10621031;27;20463;-58
2022/03/03 20:08:05;;;;;;;37.47;22.77;;;;;;;;;;10620140;27;20436;-59
2022/03/03 20:13:05;;;;;;;35.00;21.70;;;;;;;;;;10617054;27;20526;-56
2022/03/03 20:18:07;;;;;;;31.63;21.50;;;;;;;;;;10616088;27;20019;-60
2022/03/03 20:23:07;;;;;;;38.63;21.48;;;;;;;;;;10619325;27;20091;-61
2022/03/03 20:28:08;;;;;;;35.57;21.67;;;;;;;;;;10620047;27;20068;-61
2022/03/03 20:33:08;;;;;;;32.17;20.52;;;;;;;;;;10619360;27;21056;-62
2022/03/03 20:38:08;;;;;;;30.65;20.63;;;;;;;;;;10619665;27;20119;-62
2022/03/03 20:43:09;;;;;;;34.30;21.43;;;;;;;;;;10618966;27;20458;-61
2022/03/03 20:48:10;;;;;;;34.25;20.77;;;;;;;;;;10618579;27;20543;-62
2022/03/03 20:53:10;;;;;;;33.50;20.17;;;;;;;;;;10618345;27;20029;-61
2022/03/03 20:58:12;;;;;;;37.92;19.98;;;;;;;;;;10619032;27;20030;-59
2022/03/03 21:03:13;;;;;;;31.95;20.67;;;;;;;;;;10617060;27;20038;-61
2022/03/03 21:08:14;;;;;;;27.65;19.67;;;;;;;;;;10618213;27;20020;-63
2022/03/03 21:13:15;;;;;;;27.98;18.00;;;;;;;;;;10617486;27;20050;-61
2022/03/03 21:18:15;;;;;;;28.67;18.90;;;;;;;;;;10614193;27;20056;-59
2022/03/03 21:23:16;;;;;;;29.27;19.17;;;;;;;;;;10614264;27;20091;-62
2022/03/03 21:28:16;;;;;;;32.65;19.13;;;;;;;;;;10617935;27;20515;-62
2022/03/03 21:33:16;;;;;;;28.17;18.70;;;;;;;;;;10617678;28;20055;-59
2022/03/03 21:38:18;;;;;;;25.17;16.97;;;;;;;;;;10616993;27;20035;-60
2022/03/03 21:43:19;;;;;;;23.90;18.00;;;;;;;;;;10617313;28;20578;-63
2022/03/03 21:48:20;;;;;;;28.60;17.48;;;;;;;;;;10617558;27;20067;-66
2022/03/03 21:53:20;;;;;;;26.98;17.63;;;;;;;;;;10617113;28;20023;-62
2022/03/03 21:58:21;;;;;;;31.33;18.20;;;;;;;;;;10616567;27;20445;-62
2022/03/03 22:03:22;;;;;;;37.45;17.92;;;;;;;;;;10614172;28;20030;-63
2022/03/03 22:08:22;;;;;;;28.98;17.48;;;;;;;;;;10597682;27;20462;-59
2022/03/03 22:13:23;;;;;;;34.58;17.23;;;;;;;;;;10615869;28;20048;-61
2022/03/03 22:18:23;;;;;;;24.33;17.05;;;;;;;;;;10613605;27;20119;-63
2022/03/03 22:23:24;;;;;;;32.95;17.15;;;;;;;;;;10597755;27;20042;-63
2022/03/03 22:28:24;;;;;;;29.92;17.25;;;;;;;;;;10620380;27;20458;-63
2022/03/03 22:33:25;;;;;;;28.05;16.70;;;;;;;;;;10623611;27;20106;-62
2022/03/03 22:38:25;;;;;;;23.07;16.50;;;;;;;;;;10622880;27;20513;-60
2022/03/03 22:43:26;;;;;;;27.38;16.73;;;;;;;;;;10623243;27;20451;-56
2022/03/03 22:48:26;;;;;;;23.63;16.10;;;;;;;;;;10623212;27;20084;-54
2022/03/03 22:53:27;;;;;;;22.17;15.60;;;;;;;;;;10623215;27;20054;-55
2022/03/03 22:58:27;;;;;;;25.92;16.15;;;;;;;;;;10622911;27;20435;-55
2022/03/03 23:08:46;;;;;;;27.40;16.13;;;;;;;;;;10621847;27;20429;-55
2022/03/03 23:13:47;;;;;;;21.17;15.60;;;;;;;;;;10621645;27;20027;-53
2022/03/03 23:18:47;;;;;;;26.17;15.52;;;;;;;;;;10621315;27;20519;-54
2022/03/03 23:23:50;;;;;;;24.35;14.75;;;;;;;;;;10621155;27;20072;-58
2022/03/03 23:28:51;;;;;;;23.65;15.50;;;;;;;;;;10617705;27;20019;-54
2022/03/03 23:33:52;;;;;;;25.63;16.33;;;;;;;;;;10617504;27;20015;-56
2022/03/03 23:38:52;;;;;;;23.67;16.08;;;;;;;;;;10601851;27;20051;-57
2022/03/03 23:43:53;;;;;;;23.50;15.32;;;;;;;;;;10620631;27;20093;-54
2022/03/03 23:48:53;;;;;;;22.25;14.48;;;;;;;;;;10620590;27;20035;-55
2022/03/03 23:53:54;;;;;;;21.27;14.07;;;;;;;;;;10620004;27;20036;-57
2022/03/03 23:58:55;;;;;;;19.50;14.02;;;;;;;;;;10619628;27;20015;-55
